Airfield :
LOGIN :

Register | Disclaimer

   EN    FR    IT 

 










Legend :    VFR   Marginal VFR   IFR   Intensive IFR   Very Intensive IFR
Visi :
Ceiling :
>= 8 km
>= 3000ft
5 to 8 km
1000 to 3000 ft
1500m to 5 km
500 to 1000 ft
800 to 1500m
200 to 500 ft
< 800m
< 200 ft
Symbols :   Thunderstorms  Fog  Heavy snow  Heavy precipitations  Wind > 20 kt
SIGMETs :     Misc.  Thunderstorms  Icing  Turbulence  Mountain Waves  Volcanic Ashes






- Airport Elevation : 13 ft
- IATA code : SNR


LFRZ - St-Nazaire

CURRENT METAR :
  • 271400Z AUTO 24022KT 4000 -RA BR OVC006 16/15 Q1003 TEMPO 23020G32KT 2500 -RA SCT010 BKN016TCU

EXPIRED METARs :
  • 271330Z AUTO 24022G33KT 7000 OVC007 16/15 Q1003 TEMPO 4000 -SHRA SCT010 BKN016TCU
  • 271300Z AUTO 24022KT 5000 -RA BR OVC006 16/15 Q1003 TEMPO 23020G30KT 2500 -RA BKN004
  • 271230Z AUTO 23022KT 3800 -RA BR OVC006 16/15 Q1003 TEMPO 23020G30KT 2500 -RA BKN004
  • 271200Z AUTO 23019KT 3700 -RA BR OVC005 16/15 Q1004 TEMPO 23020G30KT 2500 -RA
  • 271130Z AUTO 23019G29KT 3800 -RA BR OVC005 15/15 Q1004 TEMPO 2500 RA

TAF TAF LFRZ
Valid from the 27 at 12:00 until the 28 at 12:00 UTC


271100Z 2712/2812 23015KT 8000 BKN012
TEMPO 2712/2715 23020G30KT 2500 -RA BKN004
BECMG 2715/2717 BKN018
TEMPO 2715/2721 23020G32KT 4000 -SHRA SCT010 BKN016TCU
TEMPO 2803/2812 24016G30KT 4000 -SHRA SCT010 BKN018CB



MET'MAP, your aeronautical weather chart ! - Copyright ORBIFLY December 2007 - Disclaimer

ORBIFLY MET'MAP TEAM :

Programming & Development : Alexandra Zaïnal
Concept & original design : Baudouin d'Aumeries
Assistance for programming : Marc-Olivier Méhu
Technical & hardware support : Manuel Goepfert

Contact : metmap@orbifly.com




SOURCES & CREDITS :

   NOAA